sensor_id;sensor_type;location;lat;lon;timestamp;pressure;altitude;pressure_sealevel;temperature;humidity
8627;BME280;4351;51.422;6.794;2023-05-20T00:01:21;102188.84;;;12.62;100.00
8627;BME280;4351;51.422;6.794;2023-05-20T00:03:49;102190.63;;;12.63;100.00
8627;BME280;4351;51.422;6.794;2023-05-20T00:06:17;102192.72;;;12.56;100.00
8627;BME280;4351;51.422;6.794;2023-05-20T00:08:46;102190.22;;;12.51;100.00
8627;BME280;4351;51.422;6.794;2023-05-20T00:11:14;102191.03;;;12.53;100.00
8627;BME280;4351;51.422;6.794;2023-05-20T00:13:42;102181.97;;;12.55;100.00
8627;BME280;4351;51.422;6.794;2023-05-20T00:16:10;102186.31;;;12.38;100.00
8627;BME280;4351;51.422;6.794;2023-05-20T00:18:38;102189.63;;;12.45;100.00
8627;BME280;4351;51.422;6.794;2023-05-20T00:21:07;102186.13;;;12.43;100.00
8627;BME280;4351;51.422;6.794;2023-05-20T00:23:34;102185.59;;;12.34;100.00
8627;BME280;4351;51.422;6.794;2023-05-20T00:26:04;102190.00;;;12.37;100.00
8627;BME280;4351;51.422;6.794;2023-05-20T00:28:32;102186.19;;;12.20;100.00
8627;BME280;4351;51.422;6.794;2023-05-20T00:30:59;102192.28;;;12.25;100.00
8627;BME280;4351;51.422;6.794;2023-05-20T00:33:27;102186.97;;;12.24;100.00
8627;BME280;4351;51.422;6.794;2023-05-20T00:35:55;102183.69;;;12.15;100.00
8627;BME280;4351;51.422;6.794;2023-05-20T00:38:23;102186.47;;;12.14;100.00
8627;BME280;4351;51.422;6.794;2023-05-20T00:40:51;102178.28;;;12.15;100.00
8627;BME280;4351;51.422;6.794;2023-05-20T00:43:20;102188.50;;;12.09;100.00
8627;BME280;4351;51.422;6.794;2023-05-20T00:45:51;102188.53;;;12.07;100.00
8627;BME280;4351;51.422;6.794;2023-05-20T00:48:20;102184.81;;;12.10;100.00
8627;BME280;4351;51.422;6.794;2023-05-20T00:50:49;102185.78;;;12.09;100.00
8627;BME280;4351;51.422;6.794;2023-05-20T00:53:17;102190.31;;;12.08;100.00
8627;BME280;4351;51.422;6.794;2023-05-20T00:55:45;102185.09;;;12.03;100.00
8627;BME280;4351;51.422;6.794;2023-05-20T00:58:13;102185.50;;;11.94;100.00
8627;BME280;4351;51.422;6.794;2023-05-20T01:00:43;102190.63;;;12.00;100.00
8627;BME280;4351;51.422;6.794;2023-05-20T01:03:10;102184.81;;;11.89;100.00
8627;BME280;4351;51.422;6.794;2023-05-20T01:05:39;102178.53;;;11.88;100.00
8627;BME280;4351;51.422;6.794;2023-05-20T01:08:08;102179.72;;;11.81;100.00
8627;BME280;4351;51.422;6.794;2023-05-20T01:10:38;102177.00;;;11.82;100.00
8627;BME280;4351;51.422;6.794;2023-05-20T01:13:10;102179.00;;;11.77;100.00
8627;BME280;4351;51.422;6.794;2023-05-20T01:15:44;102179.69;;;11.82;100.00
8627;BME280;4351;51.422;6.794;2023-05-20T01:18:14;102187.03;;;11.79;100.00
8627;BME280;4351;51.422;6.794;2023-05-20T01:20:45;102172.28;;;11.65;100.00
8627;BME280;4351;51.422;6.794;2023-05-20T01:23:17;102177.63;;;11.67;100.00
8627;BME280;4351;51.422;6.794;2023-05-20T01:25:45;102176.88;;;11.63;100.00
8627;BME280;4351;51.422;6.794;2023-05-20T01:28:13;102178.34;;;11.49;100.00
8627;BME280;4351;51.422;6.794;2023-05-20T01:30:51;102174.75;;;11.49;100.00
8627;BME280;4351;51.422;6.794;2023-05-20T01:33:21;102170.09;;;11.53;100.00
8627;BME280;4351;51.422;6.794;2023-05-20T01:35:52;102173.00;;;11.48;100.00
8627;BME280;4351;51.422;6.794;2023-05-20T01:38:22;102165.69;;;11.50;100.00
8627;BME280;4351;51.422;6.794;2023-05-20T01:40:52;102174.63;;;11.52;100.00
8627;BME280;4351;51.422;6.794;2023-05-20T01:43:22;102173.75;;;11.52;100.00
8627;BME280;4351;51.422;6.794;2023-05-20T01:45:51;102170.28;;;11.48;100.00
8627;BME280;4351;51.422;6.794;2023-05-20T01:48:20;102162.44;;;11.42;100.00
8627;BME280;4351;51.422;6.794;2023-05-20T01:50:47;102163.84;;;11.30;100.00
8627;BME280;4351;51.422;6.794;2023-05-20T01:53:15;102159.44;;;11.27;100.00
8627;BME280;4351;51.422;6.794;2023-05-20T01:55:45;102167.47;;;11.29;100.00
8627;BME280;4351;51.422;6.794;2023-05-20T01:58:13;102160.34;;;11.27;100.00
8627;BME280;4351;51.422;6.794;2023-05-20T02:00:41;102161.38;;;11.23;100.00
8627;BME280;4351;51.422;6.794;2023-05-20T02:03:08;102147.94;;;11.22;100.00
8627;BME280;4351;51.422;6.794;2023-05-20T02:05:37;102159.63;;;11.22;100.00
8627;BME280;4351;51.422;6.794;2023-05-20T02:08:05;102154.28;;;11.21;100.00
8627;BME280;4351;51.422;6.794;2023-05-20T02:10:33;102149.13;;;11.14;100.00
8627;BME280;4351;51.422;6.794;2023-05-20T02:13:02;102150.78;;;11.19;100.00
8627;BME280;4351;51.422;6.794;2023-05-20T02:15:31;102152.53;;;11.20;100.00
8627;BME280;4351;51.422;6.794;2023-05-20T02:17:59;102149.00;;;11.18;100.00
8627;BME280;4351;51.422;6.794;2023-05-20T02:20:27;102144.59;;;11.15;100.00
8627;BME280;4351;51.422;6.794;2023-05-20T02:22:55;102150.97;;;11.14;100.00
8627;BME280;4351;51.422;6.794;2023-05-20T02:25:23;102145.09;;;11.02;100.00
8627;BME280;4351;51.422;6.794;2023-05-20T02:27:51;102146.91;;;11.02;100.00
8627;BME280;4351;51.422;6.794;2023-05-20T02:30:20;102143.22;;;11.04;100.00
8627;BME280;4351;51.422;6.794;2023-05-20T02:32:48;102142.22;;;11.07;100.00
8627;BME280;4351;51.422;6.794;2023-05-20T02:35:17;102147.88;;;11.01;100.00
8627;BME280;4351;51.422;6.794;2023-05-20T02:37:44;102143.66;;;10.94;100.00
8627;BME280;4351;51.422;6.794;2023-05-20T02:40:14;102141.66;;;10.99;100.00
8627;BME280;4351;51.422;6.794;2023-05-20T02:42:42;102143.47;;;10.98;100.00
8627;BME280;4351;51.422;6.794;2023-05-20T02:45:10;102141.66;;;10.99;100.00
8627;BME280;4351;51.422;6.794;2023-05-20T02:47:39;102141.03;;;10.92;100.00
8627;BME280;4351;51.422;6.794;2023-05-20T02:50:08;102130.22;;;10.92;100.00
8627;BME280;4351;51.422;6.794;2023-05-20T02:52:37;102126.75;;;10.88;100.00
8627;BME280;4351;51.422;6.794;2023-05-20T02:55:05;102125.63;;;10.94;100.00
8627;BME280;4351;51.422;6.794;2023-05-20T02:57:33;102126.53;;;10.95;100.00
8627;BME280;4351;51.422;6.794;2023-05-20T03:00:07;102115.47;;;11.01;100.00
8627;BME280;4351;51.422;6.794;2023-05-20T03:02:38;102121.16;;;10.93;100.00
8627;BME280;4351;51.422;6.794;2023-05-20T03:05:07;102122.22;;;10.89;100.00
8627;BME280;4351;51.422;6.794;2023-05-20T03:07:36;102116.97;;;10.86;100.00
8627;BME280;4351;51.422;6.794;2023-05-20T03:10:06;102120.78;;;10.80;100.00
8627;BME280;4351;51.422;6.794;2023-05-20T03:12:37;102119.72;;;10.84;100.00
8627;BME280;4351;51.422;6.794;2023-05-20T03:15:06;102115.38;;;10.80;100.00
8627;BME280;4351;51.422;6.794;2023-05-20T03:17:35;102123.28;;;10.85;100.00
8627;BME280;4351;51.422;6.794;2023-05-20T03:20:06;102119.47;;;10.90;100.00
8627;BME280;4351;51.422;6.794;2023-05-20T03:22:35;102122.63;;;11.02;100.00
8627;BME280;4351;51.422;6.794;2023-05-20T03:25:03;102121.63;;;11.04;100.00
8627;BME280;4351;51.422;6.794;2023-05-20T03:27:32;102118.72;;;11.09;100.00
8627;BME280;4351;51.422;6.794;2023-05-20T03:30:02;102118.72;;;11.09;100.00
8627;BME280;4351;51.422;6.794;2023-05-20T03:32:31;102121.25;;;11.14;100.00
8627;BME280;4351;51.422;6.794;2023-05-20T03:34:59;102123.13;;;11.12;100.00
8627;BME280;4351;51.422;6.794;2023-05-20T03:37:28;102118.38;;;11.19;100.00
8627;BME280;4351;51.422;6.794;2023-05-20T03:39:56;102120.53;;;11.31;100.00
8627;BME280;4351;51.422;6.794;2023-05-20T03:42:24;102114.50;;;11.47;100.00
8627;BME280;4351;51.422;6.794;2023-05-20T03:44:52;102115.44;;;11.46;100.00
8627;BME280;4351;51.422;6.794;2023-05-20T03:47:20;102113.34;;;11.53;100.00
8627;BME280;4351;51.422;6.794;2023-05-20T03:49:49;102108.63;;;11.58;100.00
8627;BME280;4351;51.422;6.794;2023-05-20T03:52:17;102108.75;;;11.55;100.00
8627;BME280;4351;51.422;6.794;2023-05-20T03:54:46;102098.81;;;11.55;100.00
8627;BME280;4351;51.422;6.794;2023-05-20T03:57:14;102103.97;;;11.61;100.00
8627;BME280;4351;51.422;6.794;2023-05-20T03:59:42;102098.56;;;11.61;100.00
8627;BME280;4351;51.422;6.794;2023-05-20T04:02:10;102105.47;;;11.69;100.00
8627;BME280;4351;51.422;6.794;2023-05-20T04:04:38;102104.69;;;11.65;100.00
8627;BME280;4351;51.422;6.794;2023-05-20T04:07:09;102107.47;;;11.64;100.00
8627;BME280;4351;51.422;6.794;2023-05-20T04:09:38;102109.38;;;11.82;100.00
8627;BME280;4351;51.422;6.794;2023-05-20T04:12:08;102108.69;;;11.77;100.00
8627;BME280;4351;51.422;6.794;2023-05-20T04:14:36;102108.28;;;11.66;100.00
8627;BME280;4351;51.422;6.794;2023-05-20T04:17:07;102103.84;;;11.65;100.00
8627;BME280;4351;51.422;6.794;2023-05-20T04:19:35;102103.41;;;11.74;100.00
8627;BME280;4351;51.422;6.794;2023-05-20T04:22:04;102112.75;;;11.67;100.00
8627;BME280;4351;51.422;6.794;2023-05-20T04:24:32;102112.41;;;11.75;100.00
8627;BME280;4351;51.422;6.794;2023-05-20T04:27:00;102110.06;;;11.67;100.00
8627;BME280;4351;51.422;6.794;2023-05-20T04:29:30;102119.97;;;11.66;100.00
8627;BME280;4351;51.422;6.794;2023-05-20T04:32:00;102112.56;;;11.71;100.00
8627;BME280;4351;51.422;6.794;2023-05-20T04:34:29;102113.31;;;11.75;100.00
8627;BME280;4351;51.422;6.794;2023-05-20T04:37:01;102114.03;;;11.79;100.00
8627;BME280;4351;51.422;6.794;2023-05-20T04:39:29;102114.44;;;11.90;100.00
8627;BME280;4351;51.422;6.794;2023-05-20T04:41:57;102118.97;;;11.90;100.00
8627;BME280;4351;51.422;6.794;2023-05-20T04:44:26;102114.56;;;12.08;100.00
8627;BME280;4351;51.422;6.794;2023-05-20T04:46:55;102116.31;;;12.09;100.00
8627;BME280;4351;51.422;6.794;2023-05-20T04:49:23;102118.28;;;12.05;100.00
8627;BME280;4351;51.422;6.794;2023-05-20T04:51:52;102111.31;;;12.21;100.00
8627;BME280;4351;51.422;6.794;2023-05-20T04:54:21;102113.69;;;12.28;100.00
8627;BME280;4351;51.422;6.794;2023-05-20T04:56:48;102111.06;;;12.06;100.00
8627;BME280;4351;51.422;6.794;2023-05-20T04:59:16;102113.94;;;12.22;100.00
8627;BME280;4351;51.422;6.794;2023-05-20T05:01:44;102111.31;;;12.21;100.00
8627;BME280;4351;51.422;6.794;2023-05-20T05:04:14;102107.41;;;12.28;100.00
8627;BME280;4351;51.422;6.794;2023-05-20T05:06:42;102106.31;;;12.32;100.00
8627;BME280;4351;51.422;6.794;2023-05-20T05:09:10;102097.50;;;12.27;100.00
8627;BME280;4351;51.422;6.794;2023-05-20T05:11:41;102097.78;;;12.41;100.00
8627;BME280;4351;51.422;6.794;2023-05-20T05:14:09;102098.69;;;12.40;100.00
8627;BME280;4351;51.422;6.794;2023-05-20T05:16:37;102085.69;;;12.49;100.00
8627;BME280;4351;51.422;6.794;2023-05-20T05:19:05;102090.97;;;12.52;100.00
8627;BME280;4351;51.422;6.794;2023-05-20T05:21:38;102090.38;;;12.45;100.00
8627;BME280;4351;51.422;6.794;2023-05-20T05:24:06;102081.34;;;12.64;100.00
8627;BME280;4351;51.422;6.794;2023-05-20T05:26:35;102086.19;;;12.57;100.00
8627;BME280;4351;51.422;6.794;2023-05-20T05:29:03;102084.16;;;12.62;100.00
8627;BME280;4351;51.422;6.794;2023-05-20T05:31:31;102081.19;;;12.86;100.00
8627;BME280;4351;51.422;6.794;2023-05-20T05:33:59;102086.31;;;12.93;100.00
8627;BME280;4351;51.422;6.794;2023-05-20T05:36:27;102078.41;;;13.07;100.00
8627;BME280;4351;51.422;6.794;2023-05-20T05:38:56;102084.25;;;12.98;100.00
8627;BME280;4351;51.422;6.794;2023-05-20T05:41:24;102084.06;;;13.20;100.00
8627;BME280;4351;51.422;6.794;2023-05-20T05:43:53;102082.63;;;13.13;100.00
8627;BME280;4351;51.422;6.794;2023-05-20T05:46:21;102085.66;;;13.25;100.00
8627;BME280;4351;51.422;6.794;2023-05-20T05:48:49;102082.22;;;13.39;100.00
8627;BME280;4351;51.422;6.794;2023-05-20T05:51:17;102079.13;;;13.29;100.00
8627;BME280;4351;51.422;6.794;2023-05-20T05:53:47;102083.81;;;13.62;100.00
8627;BME280;4351;51.422;6.794;2023-05-20T05:56:16;102080.19;;;13.79;100.00
8627;BME280;4351;51.422;6.794;2023-05-20T05:58:44;102076.13;;;13.53;100.00
8627;BME280;4351;51.422;6.794;2023-05-20T06:01:14;102085.47;;;13.65;100.00
8627;BME280;4351;51.422;6.794;2023-05-20T06:03:42;102087.69;;;13.74;100.00
8627;BME280;4351;51.422;6.794;2023-05-20T06:06:11;102086.19;;;13.86;100.00
8627;BME280;4351;51.422;6.794;2023-05-20T06:08:39;102080.19;;;13.97;100.00
8627;BME280;4351;51.422;6.794;2023-05-20T06:11:08;102079.13;;;13.82;100.00
8627;BME280;4351;51.422;6.794;2023-05-20T06:13:38;102078.09;;;13.85;100.00
8627;BME280;4351;51.422;6.794;2023-05-20T06:16:06;102065.53;;;14.00;100.00
8627;BME280;4351;51.422;6.794;2023-05-20T06:18:34;102077.25;;;13.84;100.00
8627;BME280;4351;51.422;6.794;2023-05-20T06:21:04;102073.06;;;13.95;100.00
8627;BME280;4351;51.422;6.794;2023-05-20T06:23:32;102077.47;;;13.97;100.00
8627;BME280;4351;51.422;6.794;2023-05-20T06:26:03;102064.72;;;14.16;100.00
8627;BME280;4351;51.422;6.794;2023-05-20T06:28:32;102063.38;;;14.07;100.00
8627;BME280;4351;51.422;6.794;2023-05-20T06:31:02;102066.19;;;14.05;100.00
8627;BME280;4351;51.422;6.794;2023-05-20T06:33:32;102063.91;;;14.13;100.00
8627;BME280;4351;51.422;6.794;2023-05-20T06:36:06;102052.72;;;14.04;100.00
8627;BME280;4351;51.422;6.794;2023-05-20T06:38:33;102064.38;;;14.22;100.00
8627;BME280;4351;51.422;6.794;2023-05-20T06:41:02;102053.69;;;14.19;100.00
8627;BME280;4351;51.422;6.794;2023-05-20T06:43:31;102050.47;;;14.28;100.00
8627;BME280;4351;51.422;6.794;2023-05-20T06:46:18;102041.28;;;14.47;100.00
8627;BME280;4351;51.422;6.794;2023-05-20T06:48:52;102040.25;;;14.50;100.00
8627;BME280;4351;51.422;6.794;2023-05-20T06:51:21;102047.78;;;14.28;100.00
8627;BME280;4351;51.422;6.794;2023-05-20T06:53:49;102046.00;;;14.59;100.00
8627;BME280;4351;51.422;6.794;2023-05-20T06:59:03;102058.63;;;14.60;100.00
8627;BME280;4351;51.422;6.794;2023-05-20T07:01:34;102046.03;;;14.43;100.00
8627;BME280;4351;51.422;6.794;2023-05-20T07:04:03;102044.97;;;14.62;100.00
8627;BME280;4351;51.422;6.794;2023-05-20T07:06:32;102038.22;;;14.69;100.00
8627;BME280;4351;51.422;6.794;2023-05-20T07:09:00;102044.94;;;14.46;100.00
8627;BME280;4351;51.422;6.794;2023-05-20T07:11:28;102054.34;;;14.56;100.00
8627;BME280;4351;51.422;6.794;2023-05-20T07:13:56;102050.97;;;14.85;100.00
8627;BME280;4351;51.422;6.794;2023-05-20T07:16:25;102042.94;;;14.82;100.00
8627;BME280;4351;51.422;6.794;2023-05-20T07:18:56;102039.22;;;14.85;100.00
8627;BME280;4351;51.422;6.794;2023-05-20T07:21:24;102040.75;;;14.73;100.00
8627;BME280;4351;51.422;6.794;2023-05-20T07:24:10;102045.31;;;14.88;100.00
8627;BME280;4351;51.422;6.794;2023-05-20T07:26:38;102052.13;;;14.79;100.00
8627;BME280;4351;51.422;6.794;2023-05-20T07:29:07;102037.97;;;14.74;100.00
8627;BME280;4351;51.422;6.794;2023-05-20T07:31:37;102037.97;;;14.74;100.00
8627;BME280;4351;51.422;6.794;2023-05-20T07:34:06;102029.91;;;14.89;100.00
8627;BME280;4351;51.422;6.794;2023-05-20T07:36:34;102026.03;;;14.93;100.00
8627;BME280;4351;51.422;6.794;2023-05-20T07:39:05;102038.00;;;15.05;100.00
8627;BME280;4351;51.422;6.794;2023-05-20T07:41:40;102035.94;;;14.94;100.00
8627;BME280;4351;51.422;6.794;2023-05-20T07:44:08;102027.69;;;14.79;100.00
8627;BME280;4351;51.422;6.794;2023-05-20T07:46:38;102030.59;;;14.76;100.00
8627;BME280;4351;51.422;6.794;2023-05-20T07:49:09;102026.03;;;14.93;100.00
8627;BME280;4351;51.422;6.794;2023-05-20T07:51:38;102023.06;;;14.98;100.00
8627;BME280;4351;51.422;6.794;2023-05-20T07:54:06;102025.31;;;15.05;100.00
8627;BME280;4351;51.422;6.794;2023-05-20T07:56:35;102024.88;;;15.13;100.00
8627;BME280;4351;51.422;6.794;2023-05-20T07:59:05;102025.00;;;15.26;100.00
8627;BME280;4351;51.422;6.794;2023-05-20T08:01:41;102014.50;;;15.20;100.00
8627;BME280;4351;51.422;6.794;2023-05-20T08:04:12;102018.56;;;15.27;100.00
8627;BME280;4351;51.422;6.794;2023-05-20T08:06:41;102030.56;;;15.09;100.00
8627;BME280;4351;51.422;6.794;2023-05-20T08:09:16;102016.63;;;15.29;100.00
8627;BME280;4351;51.422;6.794;2023-05-20T08:11:49;102025.69;;;15.45;100.00
8627;BME280;4351;51.422;6.794;2023-05-20T08:14:18;102027.50;;;15.29;100.00
8627;BME280;4351;51.422;6.794;2023-05-20T08:16:52;102022.28;;;15.26;100.00
8627;BME280;4351;51.422;6.794;2023-05-20T08:19:22;102016.84;;;15.26;100.00
8627;BME280;4351;51.422;6.794;2023-05-20T08:21:50;102027.13;;;15.36;100.00
8627;BME280;4351;51.422;6.794;2023-05-20T08:24:19;102025.50;;;15.02;100.00
8627;BME280;4351;51.422;6.794;2023-05-20T08:26:47;102019.56;;;15.26;100.00
8627;BME280;4351;51.422;6.794;2023-05-20T08:29:17;102025.94;;;15.25;100.00
8627;BME280;4351;51.422;6.794;2023-05-20T08:31:44;102018.03;;;15.37;100.00
8627;BME280;4351;51.422;6.794;2023-05-20T08:34:14;102010.44;;;15.27;100.00
8627;BME280;4351;51.422;6.794;2023-05-20T08:36:43;102016.03;;;15.55;100.00
8627;BME280;4351;51.422;6.794;2023-05-20T08:39:11;102021.75;;;15.65;100.00
8627;BME280;4351;51.422;6.794;2023-05-20T08:41:39;102017.66;;;15.58;100.00
8627;BME280;4351;51.422;6.794;2023-05-20T08:44:08;102024.38;;;15.52;100.00
8627;BME280;4351;51.422;6.794;2023-05-20T08:46:38;102020.00;;;15.49;100.00
8627;BME280;4351;51.422;6.794;2023-05-20T08:49:07;102022.44;;;15.54;100.00
8627;BME280;4351;51.422;6.794;2023-05-20T08:51:35;102012.66;;;15.66;100.00
8627;BME280;4351;51.422;6.794;2023-05-20T08:54:06;102011.56;;;15.69;100.00
8627;BME280;4351;51.422;6.794;2023-05-20T08:56:35;102015.06;;;15.71;100.00
8627;BME280;4351;51.422;6.794;2023-05-20T08:59:04;102017.31;;;15.64;100.00
8627;BME280;4351;51.422;6.794;2023-05-20T09:01:36;102026.44;;;15.63;100.00
8627;BME280;4351;51.422;6.794;2023-05-20T09:04:06;102023.84;;;16.05;100.00
8627;BME280;4351;51.422;6.794;2023-05-20T09:06:41;102020.63;;;15.84;100.00
8627;BME280;4351;51.422;6.794;2023-05-20T09:09:11;102020.91;;;15.79;100.00
8627;BME280;4351;51.422;6.794;2023-05-20T09:11:40;102017.38;;;15.62;100.00
8627;BME280;4351;51.422;6.794;2023-05-20T09:14:08;102014.88;;;15.74;100.00
8627;BME280;4351;51.422;6.794;2023-05-20T09:16:38;102022.28;;;16.01;100.00
8627;BME280;4351;51.422;6.794;2023-05-20T09:19:06;102012.25;;;15.87;100.00
8627;BME280;4351;51.422;6.794;2023-05-20T09:21:35;102026.91;;;15.84;100.00
8627;BME280;4351;51.422;6.794;2023-05-20T09:24:05;102020.22;;;16.19;100.00
8627;BME280;4351;51.422;6.794;2023-05-20T09:26:34;102016.19;;;16.12;100.00
8627;BME280;4351;51.422;6.794;2023-05-20T09:29:02;102022.78;;;16.23;100.00
8627;BME280;4351;51.422;6.794;2023-05-20T09:31:30;102014.41;;;15.96;100.00
8627;BME280;4351;51.422;6.794;2023-05-20T09:33:59;102017.09;;;15.82;100.00
8627;BME280;4351;51.422;6.794;2023-05-20T09:36:28;102010.91;;;16.09;100.00
8627;BME280;4351;51.422;6.794;2023-05-20T09:38:59;102011.78;;;15.95;100.00
8627;BME280;4351;51.422;6.794;2023-05-20T09:41:35;102016.81;;;16.01;100.00
8627;BME280;4351;51.422;6.794;2023-05-20T09:44:07;102020.75;;;16.12;100.00
8627;BME280;4351;51.422;6.794;2023-05-20T09:46:36;102033.84;;;16.19;100.00
8627;BME280;4351;51.422;6.794;2023-05-20T09:49:05;102028.41;;;16.34;100.00
8627;BME280;4351;51.422;6.794;2023-05-20T09:51:34;102030.06;;;16.22;100.00
8627;BME280;4351;51.422;6.794;2023-05-20T09:54:02;102018.19;;;16.08;100.00
8627;BME280;4351;51.422;6.794;2023-05-20T09:56:35;102006.31;;;16.24;100.00
8627;BME280;4351;51.422;6.794;2023-05-20T09:59:04;102015.47;;;16.08;100.00
8627;BME280;4351;51.422;6.794;2023-05-20T10:01:32;102020.84;;;16.10;100.00
8627;BME280;4351;51.422;6.794;2023-05-20T10:04:00;102018.66;;;16.01;100.00
8627;BME280;4351;51.422;6.794;2023-05-20T10:06:49;102019.47;;;16.03;100.00
8627;BME280;4351;51.422;6.794;2023-05-20T10:09:33;102009.44;;;16.18;100.00
8627;BME280;4351;51.422;6.794;2023-05-20T10:12:16;102010.97;;;16.37;100.00
8627;BME280;4351;51.422;6.794;2023-05-20T10:14:54;102014.38;;;16.40;100.00
8627;BME280;4351;51.422;6.794;2023-05-20T10:17:38;102012.84;;;16.22;100.00
8627;BME280;4351;51.422;6.794;2023-05-20T10:20:07;102007.97;;;15.97;100.00
8627;BME280;4351;51.422;6.794;2023-05-20T10:22:37;102009.53;;;15.87;100.00
8627;BME280;4351;51.422;6.794;2023-05-20T10:25:11;102002.09;;;16.05;100.00
8627;BME280;4351;51.422;6.794;2023-05-20T10:27:45;102003.41;;;16.13;100.00
8627;BME280;4351;51.422;6.794;2023-05-20T10:30:17;102004.50;;;16.10;100.00
8627;BME280;4351;51.422;6.794;2023-05-20T10:32:52;102004.19;;;16.00;100.00
8627;BME280;4351;51.422;6.794;2023-05-20T10:35:23;101991.34;;;16.02;100.00
8627;BME280;4351;51.422;6.794;2023-05-20T10:37:53;101995.72;;;16.19;100.00
8627;BME280;4351;51.422;6.794;2023-05-20T10:40:22;101995.81;;;15.89;100.00
8627;BME280;4351;51.422;6.794;2023-05-20T10:42:51;101990.03;;;16.09;100.00
8627;BME280;4351;51.422;6.794;2023-05-20T10:45:27;101996.72;;;16.18;100.00
8627;BME280;4351;51.422;6.794;2023-05-20T10:47:57;101993.78;;;16.36;100.00
8627;BME280;4351;51.422;6.794;2023-05-20T10:50:26;101983.88;;;16.20;100.00
8627;BME280;4351;51.422;6.794;2023-05-20T10:53:01;101981.75;;;16.11;100.00
8627;BME280;4351;51.422;6.794;2023-05-20T10:55:35;101994.38;;;16.27;100.00
8627;BME280;4351;51.422;6.794;2023-05-20T10:58:05;101987.41;;;16.50;100.00
8627;BME280;4351;51.422;6.794;2023-05-20T11:00:34;101990.34;;;16.32;100.00
8627;BME280;4351;51.422;6.794;2023-05-20T11:03:04;101981.59;;;16.42;100.00
8627;BME280;4351;51.422;6.794;2023-05-20T11:05:32;101980.25;;;16.35;100.00
8627;BME280;4351;51.422;6.794;2023-05-20T11:08:01;101974.25;;;16.15;100.00
8627;BME280;4351;51.422;6.794;2023-05-20T11:10:46;101976.66;;;16.34;100.00
8627;BME280;4351;51.422;6.794;2023-05-20T11:13:16;101973.13;;;16.47;100.00
8627;BME280;4351;51.422;6.794;2023-05-20T11:15:44;101968.16;;;16.39;100.00
8627;BME280;4351;51.422;6.794;2023-05-20T11:18:12;101976.66;;;16.34;100.00
8627;BME280;4351;51.422;6.794;2023-05-20T11:20:45;101974.72;;;16.22;100.00
8627;BME280;4351;51.422;6.794;2023-05-20T11:23:14;101969.19;;;16.23;100.00
8627;BME280;4351;51.422;6.794;2023-05-20T11:25:42;101975.06;;;16.45;100.00
8627;BME280;4351;51.422;6.794;2023-05-20T11:28:12;101969.56;;;16.31;100.00
8627;BME280;4351;51.422;6.794;2023-05-20T11:30:41;101971.34;;;16.46;100.00
8627;BME280;4351;51.422;6.794;2023-05-20T11:33:11;101976.63;;;16.49;100.00
8627;BME280;4351;51.422;6.794;2023-05-20T11:35:44;101976.25;;;16.68;100.00
8627;BME280;4351;51.422;6.794;2023-05-20T11:38:12;101975.06;;;16.45;100.00
8627;BME280;4351;51.422;6.794;2023-05-20T11:40:42;101973.47;;;16.55;100.00
8627;BME280;4351;51.422;6.794;2023-05-20T11:43:18;101963.44;;;16.83;100.00
8627;BME280;4351;51.422;6.794;2023-05-20T11:45:55;101969.56;;;16.87;100.00
8627;BME280;4351;51.422;6.794;2023-05-20T11:48:25;101952.72;;;16.67;100.00
8627;BME280;4351;51.422;6.794;2023-05-20T11:50:55;101951.47;;;16.99;100.00
8627;BME280;4351;51.422;6.794;2023-05-20T11:53:27;101943.56;;;17.09;100.00
8627;BME280;4351;51.422;6.794;2023-05-20T11:55:56;101929.19;;;17.20;100.00
8627;BME280;4351;51.422;6.794;2023-05-20T11:58:26;101928.81;;;17.11;100.00
8627;BME280;4351;51.422;6.794;2023-05-20T12:00:57;101926.25;;;17.23;100.00
8627;BME280;4351;51.422;6.794;2023-05-20T12:03:46;101923.63;;;17.21;100.00
8627;BME280;4351;51.422;6.794;2023-05-20T12:06:16;101913.38;;;17.25;100.00
8627;BME280;4351;51.422;6.794;2023-05-20T12:08:44;101915.31;;;17.62;100.00
8627;BME280;4351;51.422;6.794;2023-05-20T12:11:13;101924.94;;;17.55;100.00
8627;BME280;4351;51.422;6.794;2023-05-20T12:13:41;101906.34;;;17.73;100.00
8627;BME280;4351;51.422;6.794;2023-05-20T12:16:13;101907.94;;;17.89;100.00
8627;BME280;4351;51.422;6.794;2023-05-20T12:18:42;101905.69;;;17.83;100.00
8627;BME280;4351;51.422;6.794;2023-05-20T12:21:10;101897.13;;;18.00;100.00
8627;BME280;4351;51.422;6.794;2023-05-20T12:23:39;101900.06;;;17.97;100.00
8627;BME280;4351;51.422;6.794;2023-05-20T12:26:07;101899.78;;;18.26;100.00
8627;BME280;4351;51.422;6.794;2023-05-20T12:28:35;101895.56;;;18.09;100.00
8627;BME280;4351;51.422;6.794;2023-05-20T12:31:04;101892.34;;;18.29;100.00
8627;BME280;4351;51.422;6.794;2023-05-20T12:33:34;101895.22;;;18.38;100.00
8627;BME280;4351;51.422;6.794;2023-05-20T12:36:02;101900.66;;;18.52;100.00
8627;BME280;4351;51.422;6.794;2023-05-20T12:38:31;101887.59;;;18.80;100.00
8627;BME280;4351;51.422;6.794;2023-05-20T12:41:00;101890.38;;;19.14;100.00
8627;BME280;4351;51.422;6.794;2023-05-20T12:43:28;101891.41;;;19.25;100.00
8627;BME280;4351;51.422;6.794;2023-05-20T12:45:56;101886.75;;;18.91;100.00
8627;BME280;4351;51.422;6.794;2023-05-20T12:48:24;101879.25;;;18.81;100.00
8627;BME280;4351;51.422;6.794;2023-05-20T12:50:53;101886.84;;;18.89;100.00
8627;BME280;4351;51.422;6.794;2023-05-20T12:53:21;101883.63;;;18.84;100.00
8627;BME280;4351;51.422;6.794;2023-05-20T12:55:49;101885.28;;;18.62;100.00
8627;BME280;4351;51.422;6.794;2023-05-20T12:58:17;101878.25;;;18.71;100.00
8627;BME280;4351;51.422;6.794;2023-05-20T13:00:45;101890.69;;;18.50;100.00
8627;BME280;4351;51.422;6.794;2023-05-20T13:03:13;101892.06;;;18.45;100.00
8627;BME280;4351;51.422;6.794;2023-05-20T13:05:41;101882.56;;;18.62;100.00
8627;BME280;4351;51.422;6.794;2023-05-20T13:08:10;101898.25;;;18.83;100.00
8627;BME280;4351;51.422;6.794;2023-05-20T13:10:40;101880.66;;;18.51;100.00
8627;BME280;4351;51.422;6.794;2023-05-20T13:13:08;101884.56;;;18.71;100.00
8627;BME280;4351;51.422;6.794;2023-05-20T13:15:36;101867.63;;;18.55;100.00